createdAt,value
2022-12-17T00:00:01.756Z,-1.40
2022-12-17T00:02:51.724Z,-1.26
2022-12-17T00:05:37.791Z,-1.32
2022-12-17T00:08:23.827Z,-1.34
2022-12-17T00:11:09.646Z,-1.37
2022-12-17T00:13:55.844Z,-1.57
2022-12-17T00:16:42.302Z,-1.45
2022-12-17T00:19:29.603Z,-1.44
2022-12-17T00:22:15.670Z,-1.50
2022-12-17T00:25:01.524Z,-1.48
2022-12-17T00:27:47.583Z,-1.48
2022-12-17T00:30:33.555Z,-1.47
2022-12-17T00:33:19.677Z,-1.50
2022-12-17T00:36:11.998Z,-1.62
2022-12-17T00:38:58.555Z,-1.64
2022-12-17T00:41:45.509Z,-1.58
2022-12-17T00:44:31.374Z,-1.52
2022-12-17T00:47:28.812Z,-1.63
2022-12-17T00:50:13.776Z,-1.68
2022-12-17T00:53:02.097Z,-1.62
2022-12-17T00:55:48.148Z,-1.53
2022-12-17T00:58:34.569Z,-1.60
2022-12-17T01:01:20.677Z,-1.43
2022-12-17T01:04:06.491Z,-1.44
2022-12-17T01:06:52.763Z,-1.50
2022-12-17T01:09:41.011Z,-1.45
2022-12-17T01:12:27.031Z,-1.28
2022-12-17T01:15:13.656Z,-1.18
2022-12-17T01:17:59.682Z,-0.91
2022-12-17T01:20:45.617Z,-0.85
2022-12-17T01:23:31.585Z,-0.70
2022-12-17T01:26:22.796Z,-0.38
2022-12-17T01:29:08.770Z,-0.28
2022-12-17T01:31:54.676Z,-0.18
2022-12-17T01:34:40.690Z,0.11
2022-12-17T01:37:26.783Z,0.25
2022-12-17T01:40:12.638Z,0.21
2022-12-17T01:43:03.583Z,0.46
2022-12-17T01:45:56.365Z,0.50
2022-12-17T01:48:48.720Z,0.55
2022-12-17T01:51:36.550Z,0.79
2022-12-17T01:54:37.296Z,1.01
2022-12-17T01:57:24.940Z,1.12
2022-12-17T02:00:17.344Z,1.05
2022-12-17T02:03:03.316Z,1.30
2022-12-17T02:06:00.233Z,1.27
2022-12-17T02:08:57.139Z,1.33
2022-12-17T02:11:54.385Z,1.49
2022-12-17T02:14:49.489Z,1.52
2022-12-17T02:17:44.044Z,1.61
2022-12-17T02:20:43.201Z,1.57
2022-12-17T02:23:43.284Z,1.75
2022-12-17T02:26:34.228Z,1.67
2022-12-17T02:29:24.331Z,1.80
2022-12-17T02:32:12.097Z,1.85
2022-12-17T02:35:03.618Z,1.84
2022-12-17T02:37:50.434Z,1.94
2022-12-17T02:40:37.328Z,1.98
2022-12-17T02:43:23.700Z,2.01
2022-12-17T02:46:12.612Z,1.85
2022-12-17T02:48:58.783Z,2.01
2022-12-17T02:51:47.805Z,1.98
2022-12-17T02:54:33.762Z,1.96
2022-12-17T02:57:19.504Z,1.98
2022-12-17T03:00:05.297Z,1.99
2022-12-17T03:02:52.659Z,2.01
2022-12-17T03:05:46.167Z,2.06
2022-12-17T03:08:32.702Z,1.91
2022-12-17T03:11:18.279Z,2.05
2022-12-17T03:14:04.198Z,2.06
2022-12-17T03:16:50.338Z,2.01
2022-12-17T03:19:37.568Z,2.15
2022-12-17T03:22:23.579Z,1.89
2022-12-17T03:25:08.704Z,2.06
2022-12-17T03:27:54.642Z,2.18
2022-12-17T03:30:43.219Z,2.17
2022-12-17T03:33:33.577Z,2.21
2022-12-17T03:36:21.094Z,2.27
2022-12-17T03:39:07.223Z,2.15
2022-12-17T03:41:53.130Z,2.34
2022-12-17T03:44:38.503Z,2.38
2022-12-17T03:47:24.323Z,2.36
2022-12-17T03:50:10.179Z,2.31
2022-12-17T03:52:59.982Z,2.29
2022-12-17T03:55:45.869Z,2.39
2022-12-17T03:58:31.817Z,2.41
2022-12-17T04:01:19.828Z,2.23
2022-12-17T04:04:05.894Z,2.25
2022-12-17T04:06:50.961Z,2.23
2022-12-17T04:09:37.968Z,2.09
2022-12-17T04:12:23.783Z,2.26
2022-12-17T04:15:09.470Z,2.36
2022-12-17T04:17:55.118Z,2.27
2022-12-17T04:20:40.865Z,2.29
2022-12-17T04:23:26.830Z,2.36
2022-12-17T04:26:14.003Z,2.32
2022-12-17T04:28:59.898Z,2.48
2022-12-17T04:31:46.027Z,2.50
2022-12-17T04:34:32.046Z,2.50
2022-12-17T04:37:18.088Z,2.58
2022-12-17T04:40:04.028Z,2.14
2022-12-17T04:42:51.132Z,2.22
2022-12-17T04:45:37.002Z,2.16
2022-12-17T04:48:25.441Z,2.26
2022-12-17T04:51:11.117Z,2.25
2022-12-17T04:53:57.044Z,2.18
2022-12-17T04:56:43.358Z,2.28
2022-12-17T04:59:32.936Z,2.41
2022-12-17T05:02:19.063Z,2.47
2022-12-17T05:05:05.123Z,2.38
2022-12-17T05:07:51.113Z,2.26
2022-12-17T05:10:37.225Z,2.24
2022-12-17T05:13:23.220Z,2.43
2022-12-17T05:16:15.114Z,2.19
2022-12-17T05:19:09.993Z,2.16
2022-12-17T05:21:55.976Z,2.17
2022-12-17T05:24:53.388Z,2.29
2022-12-17T05:27:39.261Z,2.35
2022-12-17T05:30:26.311Z,2.40
2022-12-17T05:33:19.360Z,2.06
2022-12-17T05:36:05.353Z,2.21
2022-12-17T05:38:51.063Z,2.04
2022-12-17T05:41:37.032Z,2.05
2022-12-17T05:44:23.085Z,2.13
2022-12-17T05:47:09.024Z,2.03
2022-12-17T05:49:56.406Z,1.83
2022-12-17T05:52:42.335Z,2.07
2022-12-17T05:55:28.206Z,1.89
2022-12-17T05:58:21.714Z,1.57
2022-12-17T06:01:07.493Z,1.58
2022-12-17T06:03:53.596Z,1.43
2022-12-17T06:06:40.967Z,1.56
2022-12-17T06:09:26.972Z,1.57
2022-12-17T06:12:13.028Z,1.43
2022-12-17T06:14:59.172Z,1.46
2022-12-17T06:17:45.234Z,1.36
2022-12-17T06:20:30.835Z,1.22
2022-12-17T06:23:22.450Z,1.21
2022-12-17T06:26:10.785Z,1.20
2022-12-17T06:28:56.900Z,1.26
2022-12-17T06:31:42.845Z,0.80
2022-12-17T06:34:28.729Z,0.96
2022-12-17T06:37:14.663Z,1.09
2022-12-17T06:40:00.987Z,0.84
2022-12-17T06:42:47.212Z,0.63
2022-12-17T06:45:36.129Z,0.96
2022-12-17T06:48:22.528Z,0.90
2022-12-17T06:51:08.364Z,0.92
2022-12-17T06:53:54.385Z,0.80
2022-12-17T06:56:41.412Z,0.76
2022-12-17T06:59:27.447Z,0.73
2022-12-17T07:02:13.546Z,0.74
2022-12-17T07:04:59.595Z,0.72
2022-12-17T07:07:45.578Z,0.79
2022-12-17T07:10:31.449Z,0.48
2022-12-17T07:13:25.074Z,0.41
2022-12-17T07:16:11.293Z,0.52
2022-12-17T07:18:57.310Z,0.56
2022-12-17T07:21:43.572Z,0.48
2022-12-17T07:24:29.628Z,0.60
2022-12-17T07:27:11.996Z,0.41
2022-12-17T07:29:58.997Z,0.23
2022-12-17T07:32:45.194Z,0.36
2022-12-17T07:35:31.301Z,0.13
2022-12-17T07:38:18.702Z,-0.04
2022-12-17T07:41:04.662Z,0.25
2022-12-17T07:43:53.241Z,0.21
2022-12-17T07:46:52.040Z,0.46
2022-12-17T07:49:37.932Z,0.41
2022-12-17T07:52:23.743Z,0.55
2022-12-17T07:55:12.113Z,0.51
2022-12-17T07:58:01.538Z,0.35
2022-12-17T08:00:49.509Z,0.36
2022-12-17T08:03:37.377Z,0.01
2022-12-17T08:06:24.157Z,0.38
2022-12-17T08:09:10.151Z,0.65
2022-12-17T08:11:56.025Z,0.74
2022-12-17T08:14:42.041Z,0.63
2022-12-17T08:17:28.096Z,0.78
2022-12-17T08:20:15.344Z,0.90
2022-12-17T08:23:01.346Z,1.04
2022-12-17T08:25:43.663Z,1.20
2022-12-17T08:31:36.003Z,1.39
2022-12-17T08:34:24.252Z,1.32
2022-12-17T08:37:12.183Z,1.46
2022-12-17T08:39:58.363Z,1.32
2022-12-17T08:42:44.262Z,1.26
2022-12-17T08:45:30.163Z,1.46
2022-12-17T08:48:22.422Z,1.28
2022-12-17T08:51:08.817Z,1.39
2022-12-17T08:53:56.136Z,1.47
2022-12-17T08:56:41.947Z,1.38
2022-12-17T08:59:27.862Z,1.50
2022-12-17T09:02:13.822Z,1.54
2022-12-17T09:05:00.068Z,1.22
2022-12-17T09:07:46.058Z,0.95
2022-12-17T09:10:33.115Z,1.18
2022-12-17T09:13:21.264Z,0.96
2022-12-17T09:16:13.644Z,1.10
2022-12-17T09:19:00.159Z,1.02
2022-12-17T09:21:47.166Z,1.01
2022-12-17T09:24:33.466Z,0.84
2022-12-17T09:27:20.685Z,0.81
2022-12-17T09:30:06.772Z,0.76
2022-12-17T09:32:52.784Z,0.48
2022-12-17T09:35:38.759Z,0.59
2022-12-17T09:38:24.377Z,0.61
2022-12-17T09:41:10.412Z,0.34
2022-12-17T09:44:06.243Z,0.52
2022-12-17T09:46:59.762Z,0.74
2022-12-17T09:49:48.095Z,0.69
2022-12-17T09:52:41.299Z,0.65
2022-12-17T09:55:39.003Z,0.66
2022-12-17T09:58:32.509Z,0.78
2022-12-17T10:01:19.832Z,0.69
2022-12-17T10:04:06.779Z,0.65
2022-12-17T10:06:54.796Z,0.81
2022-12-17T10:09:41.045Z,0.83
2022-12-17T10:12:33.416Z,0.80
2022-12-17T10:15:19.397Z,1.06
2022-12-17T10:18:06.923Z,1.25
2022-12-17T10:20:58.004Z,1.19
2022-12-17T10:23:47.151Z,1.06
2022-12-17T10:26:37.021Z,1.33
2022-12-17T10:29:28.362Z,1.48
2022-12-17T10:32:17.247Z,1.52
2022-12-17T10:35:06.010Z,1.58
2022-12-17T10:37:54.529Z,1.78
2022-12-17T10:40:47.242Z,1.87
2022-12-17T10:43:46.529Z,1.81
2022-12-17T10:46:46.846Z,2.06
2022-12-17T10:49:35.797Z,2.11
2022-12-17T10:52:31.717Z,2.27
2022-12-17T10:55:22.160Z,2.39
2022-12-17T10:58:10.682Z,2.18
2022-12-17T11:00:59.623Z,2.24
2022-12-17T11:03:51.130Z,2.47
2022-12-17T11:06:44.150Z,2.64
2022-12-17T11:09:42.808Z,2.39
2022-12-17T11:12:31.138Z,2.56
2022-12-17T11:15:26.333Z,2.40
2022-12-17T11:18:12.827Z,2.37
2022-12-17T11:21:09.357Z,2.39
2022-12-17T11:24:00.222Z,2.10
2022-12-17T11:26:52.990Z,2.30
2022-12-17T11:29:39.131Z,2.53
2022-12-17T11:33:13.206Z,2.62
2022-12-17T11:36:12.090Z,2.51
2022-12-17T11:39:02.613Z,2.66
2022-12-17T11:42:06.587Z,2.66
2022-12-17T11:45:08.663Z,2.86
2022-12-17T11:48:06.408Z,2.95
2022-12-17T11:51:03.563Z,3.04
2022-12-17T11:54:07.617Z,3.06
2022-12-17T11:57:02.456Z,3.14
2022-12-17T11:59:55.043Z,3.22
2022-12-17T12:03:04.068Z,3.18
2022-12-17T12:06:05.662Z,2.97
2022-12-17T12:09:00.717Z,2.81
2022-12-17T12:11:52.889Z,2.91
2022-12-17T12:14:54.004Z,3.04
2022-12-17T12:18:02.109Z,2.73
2022-12-17T12:21:17.539Z,2.84
2022-12-17T12:24:21.503Z,3.15
2022-12-17T12:27:18.635Z,3.25
2022-12-17T12:30:17.212Z,3.20
2022-12-17T12:33:17.833Z,3.18
2022-12-17T12:36:05.176Z,2.95
2022-12-17T12:39:06.101Z,3.00
2022-12-17T12:42:09.574Z,3.08
2022-12-17T12:45:04.442Z,3.24
2022-12-17T12:48:05.740Z,3.30
2022-12-17T12:51:05.171Z,3.46
2022-12-17T12:53:51.146Z,3.42
2022-12-17T12:57:10.448Z,3.22
2022-12-17T12:59:56.428Z,3.22
2022-12-17T13:02:48.556Z,3.32
2022-12-17T13:05:34.494Z,3.27
2022-12-17T13:08:20.977Z,3.33
2022-12-17T13:10:50.939Z,3.25
2022-12-17T13:13:34.489Z,3.23
2022-12-17T13:16:22.849Z,3.32
2022-12-17T13:19:01.929Z,3.37
2022-12-17T13:21:32.626Z,3.42
2022-12-17T13:24:12.674Z,3.40
2022-12-17T13:26:46.402Z,3.63
2022-12-17T13:29:28.373Z,3.47
2022-12-17T13:32:14.110Z,3.37
2022-12-17T13:35:05.656Z,3.28
2022-12-17T13:37:52.574Z,3.27
2022-12-17T13:40:36.484Z,3.07
2022-12-17T13:43:04.908Z,3.23
2022-12-17T13:45:38.181Z,3.28
2022-12-17T13:48:07.155Z,3.13
2022-12-17T13:50:36.660Z,3.15
2022-12-17T13:55:23.873Z,-1.13
2022-12-17T13:57:53.407Z,-1.20
2022-12-17T14:00:26.002Z,-1.36
2022-12-17T14:02:55.608Z,-1.11
2022-12-17T14:05:30.445Z,-1.36
2022-12-17T14:08:02.646Z,-1.16
2022-12-17T14:10:33.394Z,-1.23
2022-12-17T14:13:06.452Z,-1.29
2022-12-17T14:15:36.091Z,-1.18
2022-12-17T14:18:05.869Z,-0.94
2022-12-17T14:20:37.165Z,-1.01
2022-12-17T14:23:14.010Z,-1.05
2022-12-17T14:25:45.783Z,-0.99
2022-12-17T14:28:30.711Z,-1.12
2022-12-17T14:34:07.643Z,-1.28
2022-12-17T14:36:38.872Z,-1.25
2022-12-17T14:39:19.040Z,-1.30
2022-12-17T14:42:06.863Z,-1.37
2022-12-17T14:44:35.779Z,-1.31
2022-12-17T14:47:22.281Z,-1.37
2022-12-17T14:50:05.352Z,-1.40
2022-12-17T14:52:42.244Z,-1.53
2022-12-17T14:55:26.509Z,-1.56
2022-12-17T14:58:21.230Z,-1.38
2022-12-17T15:00:54.588Z,-1.57
2022-12-17T15:03:27.626Z,-1.62
2022-12-17T15:06:02.365Z,-1.77
2022-12-17T15:08:34.728Z,-1.56
2022-12-17T15:14:09.882Z,-1.91
2022-12-17T15:16:38.282Z,-1.85
2022-12-17T15:19:06.629Z,-1.86
2022-12-17T15:21:35.192Z,-1.74
2022-12-17T15:24:03.732Z,-1.92
2022-12-17T15:26:32.124Z,-2.09
2022-12-17T15:29:00.425Z,-1.92
2022-12-17T15:31:35.250Z,-2.05
2022-12-17T15:34:04.097Z,-1.99
2022-12-17T15:36:33.383Z,-2.03
2022-12-17T15:39:01.749Z,-2.20
2022-12-17T15:41:47.730Z,-1.97
2022-12-17T15:44:16.268Z,-1.91
2022-12-17T15:46:46.122Z,-1.97
2022-12-17T15:49:14.704Z,-2.00
2022-12-17T15:51:43.068Z,-2.37
2022-12-17T15:54:11.396Z,-2.31
2022-12-17T15:56:39.775Z,-2.29
2022-12-17T15:59:08.005Z,-2.43
2022-12-17T16:01:36.527Z,-2.49
2022-12-17T16:04:10.766Z,-2.53
2022-12-17T16:06:44.410Z,-2.98
2022-12-17T16:09:12.746Z,-2.77
2022-12-17T16:11:41.163Z,-2.71
2022-12-17T16:14:09.916Z,-2.70
2022-12-17T16:16:38.217Z,-2.73
2022-12-17T16:19:07.891Z,-2.83
2022-12-17T16:21:36.305Z,-2.68
2022-12-17T16:24:05.763Z,-2.90
2022-12-17T16:26:34.679Z,-2.57
2022-12-17T16:29:03.094Z,-2.60
2022-12-17T16:31:32.210Z,-2.71
2022-12-17T16:34:00.727Z,-2.48
2022-12-17T16:36:30.544Z,-2.53
2022-12-17T16:38:58.960Z,-2.53
2022-12-17T16:41:27.489Z,-2.65
2022-12-17T16:43:55.828Z,-2.49
2022-12-17T16:46:30.822Z,-2.56
2022-12-17T16:49:06.679Z,-2.87
2022-12-17T16:51:37.291Z,-2.66
2022-12-17T16:54:07.905Z,-2.50
2022-12-17T16:56:40.339Z,-2.44
2022-12-17T16:59:11.696Z,-2.44
2022-12-17T17:01:42.612Z,-2.35
2022-12-17T17:04:13.109Z,-2.39
2022-12-17T17:06:46.063Z,-2.31
2022-12-17T17:09:15.591Z,-2.36
2022-12-17T17:11:50.934Z,-2.40
2022-12-17T17:14:20.860Z,-2.46
2022-12-17T17:16:49.462Z,-2.51
2022-12-17T17:19:18.578Z,-2.61
2022-12-17T17:21:54.268Z,-2.64
2022-12-17T17:24:25.836Z,-2.62
2022-12-17T17:26:55.994Z,-2.66
2022-12-17T17:29:24.434Z,-2.53
2022-12-17T17:32:09.862Z,-2.52
2022-12-17T17:34:39.595Z,-2.58
2022-12-17T17:37:10.205Z,-2.53
2022-12-17T17:39:38.596Z,-2.63
2022-12-17T17:42:07.031Z,-2.62
2022-12-17T17:44:35.656Z,-2.66
2022-12-17T17:47:04.271Z,-2.77
2022-12-17T17:49:32.669Z,-2.68
2022-12-17T17:52:09.917Z,-2.96
2022-12-17T17:54:40.952Z,-2.80
2022-12-17T17:57:10.219Z,-2.88
2022-12-17T17:59:39.385Z,-2.71
2022-12-17T18:02:08.893Z,-2.77
2022-12-17T18:04:37.815Z,-2.76
2022-12-17T18:07:24.817Z,-2.73
2022-12-17T18:09:55.325Z,-2.83
2022-12-17T18:12:41.628Z,-2.72
2022-12-17T18:15:16.334Z,-2.92
2022-12-17T18:17:47.689Z,-2.87
2022-12-17T18:20:17.047Z,-2.86
2022-12-17T18:22:47.343Z,-3.04
2022-12-17T18:25:18.147Z,-2.85
2022-12-17T18:27:46.841Z,-3.17
2022-12-17T18:30:16.305Z,-3.26
2022-12-17T18:32:44.827Z,-3.05
2022-12-17T18:35:17.005Z,-2.92
2022-12-17T18:37:45.469Z,-2.98
2022-12-17T18:40:13.859Z,-3.00
2022-12-17T18:43:01.193Z,-3.00
2022-12-17T18:45:30.053Z,-2.91
2022-12-17T18:47:59.102Z,-2.98
2022-12-17T18:50:27.436Z,-3.07
2022-12-17T18:52:55.952Z,-3.07
2022-12-17T18:55:24.301Z,-3.07
2022-12-17T18:57:54.154Z,-3.31
2022-12-17T19:00:22.825Z,-3.15
2022-12-17T19:02:51.288Z,-3.14
2022-12-17T19:05:19.710Z,-3.38
2022-12-17T19:07:48.167Z,-3.28
2022-12-17T19:10:16.774Z,-3.17
2022-12-17T19:12:45.149Z,-3.15
2022-12-17T19:15:15.011Z,-3.23
2022-12-17T19:17:43.451Z,-3.51
2022-12-17T19:20:12.991Z,-3.35
2022-12-17T19:22:41.477Z,-3.24
2022-12-17T19:25:11.409Z,-3.16
2022-12-17T19:27:39.861Z,-3.35
2022-12-17T19:30:10.629Z,-3.51
2022-12-17T19:32:40.392Z,-3.40
2022-12-17T19:35:09.480Z,-3.64
2022-12-17T19:37:37.907Z,-3.58
2022-12-17T19:40:07.817Z,-3.61
2022-12-17T19:42:37.649Z,-3.60
2022-12-17T19:45:10.038Z,-3.57
2022-12-17T19:47:40.021Z,-3.49
2022-12-17T19:50:09.278Z,-3.51
2022-12-17T19:52:37.666Z,-3.51
2022-12-17T19:55:07.348Z,-3.67
2022-12-17T19:57:36.093Z,-3.66
2022-12-17T20:00:05.307Z,-3.65
2022-12-17T20:02:42.642Z,-3.62
2022-12-17T20:05:11.657Z,-3.54
2022-12-17T20:07:41.592Z,-3.42
2022-12-17T20:10:10.425Z,-3.40
2022-12-17T20:12:39.670Z,-3.65
2022-12-17T20:15:09.509Z,-3.65
2022-12-17T20:17:37.980Z,-3.75
2022-12-17T20:20:09.789Z,-3.64
2022-12-17T20:22:38.452Z,-3.53
2022-12-17T20:25:09.895Z,-3.43
2022-12-17T20:27:38.439Z,-3.61
2022-12-17T20:30:08.809Z,-3.59
2022-12-17T20:32:37.635Z,-3.37
2022-12-17T20:35:09.403Z,-3.61
2022-12-17T20:37:37.825Z,-3.40
2022-12-17T20:40:08.376Z,-3.36
2022-12-17T20:42:36.755Z,-3.28
2022-12-17T20:45:05.982Z,-3.27
2022-12-17T20:47:34.323Z,-3.29
2022-12-17T20:50:02.739Z,-3.48
2022-12-17T20:52:32.622Z,-3.24
2022-12-17T20:55:01.058Z,-3.38
2022-12-17T20:57:29.856Z,-3.53
2022-12-17T20:59:58.571Z,-3.37
2022-12-17T21:02:27.459Z,-3.45
2022-12-17T21:04:56.246Z,-3.44
2022-12-17T21:07:24.684Z,-3.42
2022-12-17T21:09:54.476Z,-3.38
2022-12-17T21:12:23.196Z,-3.35
2022-12-17T21:14:51.634Z,-3.37
2022-12-17T21:17:20.194Z,-3.45
2022-12-17T21:19:48.698Z,-3.41
2022-12-17T21:22:17.222Z,-3.37
2022-12-17T21:24:45.726Z,-3.36
2022-12-17T21:27:17.297Z,-3.59
2022-12-17T21:29:45.642Z,-3.31
2022-12-17T21:32:14.093Z,-3.35
2022-12-17T21:34:42.724Z,-3.37
2022-12-17T21:37:11.321Z,-3.32
2022-12-17T21:39:39.924Z,-3.24
2022-12-17T21:42:25.904Z,-3.30
2022-12-17T21:44:55.898Z,-3.54
2022-12-17T21:47:24.959Z,-3.54
2022-12-17T21:49:53.700Z,-3.35
2022-12-17T21:52:22.183Z,-3.51
2022-12-17T21:54:50.896Z,-3.43
2022-12-17T21:57:19.221Z,-3.27
2022-12-17T21:59:48.348Z,-3.34
2022-12-17T22:02:18.908Z,-3.45
2022-12-17T22:04:47.442Z,-3.27
2022-12-17T22:07:17.289Z,-3.29
2022-12-17T22:10:09.804Z,-3.38
2022-12-17T22:13:01.025Z,-3.52
2022-12-17T22:15:38.817Z,-3.55
2022-12-17T22:18:18.206Z,-3.62
2022-12-17T22:20:46.545Z,-3.71
2022-12-17T22:23:15.488Z,-3.80
2022-12-17T22:25:44.158Z,-3.94
2022-12-17T22:28:12.541Z,-3.90
2022-12-17T22:30:58.506Z,-3.92
2022-12-17T22:33:54.211Z,-3.97
2022-12-17T22:38:05.169Z,-4.01
2022-12-17T22:41:02.683Z,-4.28
2022-12-17T22:44:31.890Z,-4.60
2022-12-17T22:45:09.583Z,-3.91
2022-12-17T22:47:39.250Z,-3.93
2022-12-17T22:50:10.524Z,-4.01
2022-12-17T22:52:40.477Z,-4.01
2022-12-17T22:55:10.161Z,-4.15
2022-12-17T22:57:38.943Z,-4.16
2022-12-17T23:00:18.209Z,-4.15
2022-12-17T23:02:46.549Z,-4.10
2022-12-17T23:05:16.649Z,-4.23
2022-12-17T23:07:45.004Z,-4.00
2022-12-17T23:10:13.398Z,-3.94
2022-12-17T23:12:54.339Z,-3.96
2022-12-17T23:15:27.332Z,-4.22
2022-12-17T23:17:59.042Z,-4.13
2022-12-17T23:20:32.754Z,-3.92
2022-12-17T23:23:01.826Z,-3.84
2022-12-17T23:25:31.122Z,-3.90
2022-12-17T23:27:59.590Z,-3.98
2022-12-17T23:30:27.915Z,-3.78
2022-12-17T23:32:56.244Z,-3.84
2022-12-17T23:35:25.289Z,-3.88
2022-12-17T23:37:55.870Z,-3.97
2022-12-17T23:40:25.979Z,-4.14
2022-12-17T23:42:54.299Z,-4.04
2022-12-17T23:45:22.593Z,-3.96
2022-12-17T23:47:51.221Z,-4.01
2022-12-17T23:50:19.926Z,-4.23
2022-12-17T23:52:48.453Z,-3.99
2022-12-17T23:55:18.459Z,-3.95
2022-12-17T23:57:46.761Z,-4.08
